createdAt,value
2022-10-31T00:00:30.519Z,4.95
2022-10-31T00:02:57.276Z,4.72
2022-10-31T00:05:23.883Z,4.60
2022-10-31T00:07:53.549Z,4.57
2022-10-31T00:10:19.957Z,4.47
2022-10-31T00:12:46.375Z,3.80
2022-10-31T00:15:12.814Z,4.75
2022-10-31T00:17:39.212Z,5.30
2022-10-31T00:20:06.248Z,3.83
2022-10-31T00:22:32.695Z,4.47
2022-10-31T00:24:59.129Z,4.10
2022-10-31T00:27:25.639Z,3.90
2022-10-31T00:29:52.069Z,4.45
2022-10-31T00:32:18.475Z,3.92
2022-10-31T00:34:44.898Z,4.13
2022-10-31T00:37:11.288Z,3.47
2022-10-31T00:39:37.708Z,4.30
2022-10-31T00:42:04.240Z,4.22
2022-10-31T00:44:30.637Z,4.68
2022-10-31T00:46:57.066Z,4.65
2022-10-31T00:49:23.470Z,3.90
2022-10-31T00:51:49.877Z,4.57
2022-10-31T00:54:16.279Z,4.88
2022-10-31T00:56:42.652Z,4.20
2022-10-31T00:59:09.158Z,5.60
2022-10-31T01:01:35.642Z,5.25
2022-10-31T01:04:02.162Z,3.92
2022-10-31T01:06:28.599Z,4.15
2022-10-31T01:08:55.007Z,4.10
2022-10-31T01:11:24.125Z,4.40
2022-10-31T01:13:53.189Z,4.70
2022-10-31T01:18:47.187Z,4.10
2022-10-31T01:21:19.632Z,3.90
2022-10-31T01:23:46.682Z,3.92
2022-10-31T01:26:33.743Z,4.20
2022-10-31T01:29:02.827Z,4.80
2022-10-31T01:33:58.982Z,4.53
2022-10-31T01:36:25.410Z,4.68
2022-10-31T01:38:53.518Z,4.65
2022-10-31T01:41:23.976Z,4.30
2022-10-31T01:43:55.273Z,4.32
2022-10-31T01:46:26.746Z,4.15
2022-10-31T01:48:55.591Z,4.75
2022-10-31T01:51:25.322Z,4.13
2022-10-31T01:53:56.289Z,4.93
2022-10-31T01:56:23.230Z,4.68
2022-10-31T01:58:50.010Z,4.68
2022-10-31T02:01:18.012Z,4.60
2022-10-31T02:03:46.803Z,3.90
2022-10-31T02:06:26.489Z,4.05
2022-10-31T02:08:54.540Z,4.13
2022-10-31T02:11:20.986Z,4.22
2022-10-31T02:13:48.859Z,4.35
2022-10-31T02:16:15.306Z,4.00
2022-10-31T02:18:41.790Z,4.25
2022-10-31T02:21:14.291Z,4.07
2022-10-31T02:24:04.850Z,4.88
2022-10-31T02:26:50.567Z,4.57
2022-10-31T02:29:23.027Z,4.68
2022-10-31T02:32:12.673Z,5.43
2022-10-31T02:34:58.248Z,4.35
2022-10-31T02:37:45.581Z,4.03
2022-10-31T02:40:30.167Z,4.13
2022-10-31T02:43:01.485Z,4.60
2022-10-31T02:45:39.910Z,4.18
2022-10-31T02:48:13.071Z,4.25
2022-10-31T02:50:44.800Z,4.30
2022-10-31T02:53:15.365Z,3.80
2022-10-31T02:56:02.398Z,4.32
2022-10-31T02:58:34.746Z,3.65
2022-10-31T03:01:27.048Z,4.20
2022-10-31T03:04:11.743Z,4.65
2022-10-31T03:06:50.299Z,4.82
2022-10-31T03:09:27.872Z,4.05
2022-10-31T03:12:03.143Z,4.55
2022-10-31T03:17:27.325Z,3.90
2022-10-31T03:19:56.604Z,4.15
2022-10-31T03:22:29.620Z,4.07
2022-10-31T03:24:58.622Z,5.32
2022-10-31T03:27:27.816Z,4.07
2022-10-31T03:29:58.495Z,4.40
2022-10-31T03:32:40.766Z,4.13
2022-10-31T03:35:09.507Z,4.78
2022-10-31T03:37:38.014Z,4.40
2022-10-31T03:40:07.801Z,4.68
2022-10-31T03:42:38.431Z,4.35
2022-10-31T03:45:16.049Z,4.18
2022-10-31T03:47:44.408Z,4.38
2022-10-31T03:50:14.265Z,4.45
2022-10-31T03:53:06.198Z,4.63
2022-10-31T03:55:39.584Z,4.15
2022-10-31T03:58:33.366Z,4.65
2022-10-31T04:03:31.834Z,4.10
2022-10-31T04:06:03.355Z,4.72
2022-10-31T04:08:33.463Z,4.93
2022-10-31T04:11:01.919Z,4.80
2022-10-31T04:13:32.342Z,4.65
2022-10-31T04:15:59.448Z,4.65
2022-10-31T04:18:26.765Z,4.45
2022-10-31T04:21:04.403Z,4.05
2022-10-31T04:23:31.560Z,4.00
2022-10-31T04:25:59.118Z,4.30
2022-10-31T04:28:25.671Z,4.45
2022-10-31T04:30:53.140Z,4.65
2022-10-31T04:33:20.075Z,4.30
2022-10-31T04:35:47.206Z,4.40
2022-10-31T04:38:13.764Z,4.65
2022-10-31T04:40:40.166Z,4.47
2022-10-31T04:43:06.829Z,4.18
2022-10-31T04:45:33.367Z,4.18
2022-10-31T04:48:00.062Z,3.45
2022-10-31T04:50:26.637Z,3.90
2022-10-31T04:52:53.303Z,4.10
2022-10-31T04:55:19.813Z,4.60
2022-10-31T04:57:48.660Z,4.97
2022-10-31T05:00:17.436Z,4.80
2022-10-31T05:02:48.678Z,4.60
2022-10-31T05:05:16.339Z,4.78
2022-10-31T05:07:44.370Z,4.80
2022-10-31T05:10:17.373Z,4.55
2022-10-31T05:12:48.846Z,4.65
2022-10-31T05:15:16.175Z,5.25
2022-10-31T05:17:43.001Z,4.13
2022-10-31T05:20:10.722Z,4.72
2022-10-31T05:22:37.273Z,4.97
2022-10-31T05:25:06.750Z,4.40
2022-10-31T05:27:33.182Z,4.05
2022-10-31T05:32:26.959Z,4.20
2022-10-31T05:34:53.406Z,4.18
2022-10-31T05:37:19.811Z,4.10
2022-10-31T05:39:46.223Z,4.43
2022-10-31T05:42:12.672Z,4.47
2022-10-31T05:44:39.124Z,4.43
2022-10-31T05:47:06.665Z,4.38
2022-10-31T05:49:33.121Z,3.83
2022-10-31T05:51:59.576Z,5.03
2022-10-31T05:54:26.059Z,5.03
2022-10-31T05:56:52.467Z,4.72
2022-10-31T05:59:18.846Z,4.30
2022-10-31T06:01:45.405Z,4.05
2022-10-31T06:04:11.999Z,4.57
2022-10-31T06:06:38.504Z,4.70
2022-10-31T06:09:04.908Z,4.72
2022-10-31T06:11:31.346Z,4.65
2022-10-31T06:13:57.775Z,4.63
2022-10-31T06:16:24.216Z,4.72
2022-10-31T06:18:51.022Z,4.55
2022-10-31T06:21:19.065Z,3.78
2022-10-31T06:23:45.824Z,4.25
2022-10-31T06:26:12.307Z,4.60
2022-10-31T06:28:38.735Z,4.10
2022-10-31T06:31:05.499Z,4.60
2022-10-31T06:33:31.958Z,4.80
2022-10-31T06:35:58.478Z,4.32
2022-10-31T06:38:27.611Z,4.55
2022-10-31T06:43:22.473Z,4.22
2022-10-31T06:45:48.930Z,5.50
2022-10-31T06:48:17.987Z,5.35
2022-10-31T06:50:44.830Z,4.88
2022-10-31T06:53:12.215Z,4.47
2022-10-31T06:55:38.987Z,4.00
2022-10-31T06:58:05.933Z,3.92
2022-10-31T07:00:33.170Z,4.50
2022-10-31T07:03:02.359Z,4.68
2022-10-31T07:05:30.056Z,5.32
2022-10-31T07:08:02.710Z,4.90
2022-10-31T07:10:33.152Z,4.80
2022-10-31T07:13:04.384Z,5.82
2022-10-31T07:15:33.942Z,5.35
2022-10-31T07:18:05.159Z,5.32
2022-10-31T07:20:32.356Z,4.70
2022-10-31T07:22:59.262Z,5.78
2022-10-31T07:25:25.991Z,5.30
2022-10-31T07:27:52.692Z,5.47
2022-10-31T07:30:19.713Z,5.38
2022-10-31T07:32:50.354Z,4.38
2022-10-31T07:35:22.377Z,4.88
2022-10-31T07:37:49.855Z,5.18
2022-10-31T07:40:17.037Z,5.40
2022-10-31T07:42:46.491Z,4.25
2022-10-31T07:45:15.513Z,5.50
2022-10-31T07:47:53.348Z,4.65
2022-10-31T07:50:27.717Z,4.70
2022-10-31T07:53:06.331Z,4.75
2022-10-31T07:55:33.479Z,6.57
2022-10-31T07:58:08.750Z,6.82
2022-10-31T08:00:36.944Z,6.55
2022-10-31T08:03:11.834Z,6.13
2022-10-31T08:05:38.901Z,4.55
2022-10-31T08:08:06.178Z,5.80
2022-10-31T08:10:33.652Z,6.07
2022-10-31T08:13:03.128Z,6.05
2022-10-31T08:15:30.049Z,5.47
2022-10-31T08:17:56.562Z,5.75
2022-10-31T08:20:23.384Z,5.72
2022-10-31T08:23:04.727Z,6.25
2022-10-31T08:25:38.190Z,6.07
2022-10-31T08:28:07.690Z,5.82
2022-10-31T08:30:36.195Z,6.50
2022-10-31T08:33:13.984Z,6.60
2022-10-31T08:35:41.162Z,6.53
2022-10-31T08:38:10.694Z,6.88
2022-10-31T08:40:37.927Z,7.40
2022-10-31T08:43:15.329Z,7.28
2022-10-31T08:45:42.948Z,7.38
2022-10-31T08:48:15.429Z,7.00
2022-10-31T08:50:42.833Z,6.97
2022-10-31T08:53:13.324Z,9.00
2022-10-31T08:55:40.978Z,8.90
2022-10-31T08:58:11.207Z,8.68
2022-10-31T09:00:38.624Z,8.35
2022-10-31T09:03:07.691Z,8.27
2022-10-31T09:08:03.521Z,8.27
2022-10-31T09:10:32.529Z,8.82
2022-10-31T09:13:00.672Z,8.30
2022-10-31T09:15:28.439Z,8.20
2022-10-31T09:17:55.116Z,7.88
2022-10-31T09:20:22.461Z,8.50
2022-10-31T09:22:49.162Z,8.20
2022-10-31T09:25:15.717Z,7.47
2022-10-31T09:27:42.136Z,7.78
2022-10-31T09:30:09.647Z,8.32
2022-10-31T09:32:36.065Z,8.18
2022-10-31T09:35:02.866Z,8.30
2022-10-31T09:37:29.392Z,7.32
2022-10-31T09:39:55.997Z,7.93
2022-10-31T09:42:44.940Z,7.00
2022-10-31T09:45:19.420Z,7.00
2022-10-31T09:48:13.066Z,7.00
2022-10-31T09:50:39.451Z,7.55
2022-10-31T09:53:24.200Z,7.97
2022-10-31T09:55:52.065Z,7.43
2022-10-31T09:58:26.220Z,7.45
2022-10-31T10:00:55.865Z,7.15
2022-10-31T10:03:45.526Z,6.70
2022-10-31T10:06:20.560Z,7.70
2022-10-31T10:11:22.905Z,7.22
2022-10-31T10:14:04.760Z,5.75
2022-10-31T10:16:54.050Z,7.70
2022-10-31T10:19:35.994Z,6.43
2022-10-31T10:22:17.754Z,7.25
2022-10-31T10:25:11.349Z,7.45
2022-10-31T10:27:46.997Z,7.28
2022-10-31T10:30:20.272Z,7.60
2022-10-31T10:33:00.187Z,7.38
2022-10-31T10:35:41.858Z,8.13
2022-10-31T10:38:21.663Z,7.32
2022-10-31T10:40:48.332Z,7.65
2022-10-31T10:43:38.213Z,7.50
2022-10-31T10:46:26.361Z,7.90
2022-10-31T10:49:15.934Z,7.60
2022-10-31T10:55:13.072Z,7.55
2022-10-31T10:57:54.994Z,7.35
2022-10-31T11:00:32.679Z,7.47
2022-10-31T11:02:59.876Z,7.15
2022-10-31T11:05:43.313Z,7.85
2022-10-31T11:08:10.346Z,7.35
2022-10-31T11:10:37.041Z,7.60
2022-10-31T11:13:18.683Z,8.10
2022-10-31T11:16:08.693Z,9.07
2022-10-31T11:18:40.169Z,6.97
2022-10-31T11:21:07.036Z,7.10
2022-10-31T11:23:34.056Z,8.07
2022-10-31T11:26:02.229Z,7.88
2022-10-31T11:28:36.257Z,7.15
2022-10-31T11:31:14.321Z,8.18
2022-10-31T11:33:47.909Z,6.78
2022-10-31T11:36:19.851Z,6.85
2022-10-31T11:38:46.842Z,7.40
2022-10-31T11:41:29.939Z,7.22
2022-10-31T11:43:59.899Z,7.03
2022-10-31T11:46:38.254Z,7.32
2022-10-31T11:49:12.314Z,7.03
2022-10-31T11:51:38.993Z,7.63
2022-10-31T11:54:06.449Z,7.88
2022-10-31T11:56:43.122Z,6.43
2022-10-31T11:59:25.448Z,6.82
2022-10-31T12:01:54.231Z,6.88
2022-10-31T12:04:32.418Z,6.28
2022-10-31T12:06:59.564Z,6.68
2022-10-31T12:09:33.564Z,6.72
2022-10-31T12:12:17.238Z,6.05
2022-10-31T12:15:13.220Z,6.22
2022-10-31T12:18:06.803Z,6.53
2022-10-31T12:20:48.520Z,5.43
2022-10-31T12:23:53.548Z,5.68
2022-10-31T12:26:38.809Z,5.18
2022-10-31T12:29:44.046Z,5.30
2022-10-31T12:32:17.907Z,5.28
2022-10-31T12:34:56.216Z,4.78
2022-10-31T12:38:05.290Z,5.63
2022-10-31T12:40:40.592Z,4.28
2022-10-31T12:43:19.841Z,5.25
2022-10-31T12:45:55.704Z,5.10
2022-10-31T12:49:07.273Z,3.42
2022-10-31T12:51:45.292Z,3.47
2022-10-31T12:54:33.065Z,4.00
2022-10-31T12:57:05.496Z,3.70
2022-10-31T12:59:36.564Z,3.70
2022-10-31T13:02:38.550Z,3.33
2022-10-31T13:05:31.332Z,3.33
2022-10-31T13:08:18.389Z,3.58
2022-10-31T13:10:53.248Z,3.53
2022-10-31T13:13:20.027Z,3.13
2022-10-31T13:15:53.451Z,3.75
2022-10-31T13:18:34.256Z,3.80
2022-10-31T13:21:08.686Z,3.30
2022-10-31T13:23:50.924Z,3.15
2022-10-31T13:26:37.868Z,3.17
2022-10-31T13:29:19.834Z,3.17
2022-10-31T13:31:46.436Z,3.10
2022-10-31T13:34:32.682Z,3.63
2022-10-31T13:37:22.288Z,3.42
2022-10-31T13:40:19.065Z,3.20
2022-10-31T13:43:24.955Z,3.33
2022-10-31T13:45:54.428Z,3.05
2022-10-31T13:48:36.374Z,3.15
2022-10-31T13:51:11.757Z,3.50
2022-10-31T13:53:43.215Z,4.70
2022-10-31T13:56:09.636Z,3.72
2022-10-31T13:58:36.660Z,3.42
2022-10-31T14:01:20.941Z,3.25
2022-10-31T14:04:07.843Z,3.63
2022-10-31T14:07:03.719Z,2.97
2022-10-31T14:09:34.150Z,2.65
2022-10-31T14:12:06.134Z,3.28
2022-10-31T14:14:48.951Z,3.10
2022-10-31T14:17:25.474Z,2.80
2022-10-31T14:20:23.964Z,3.00
2022-10-31T14:22:50.616Z,2.92
2022-10-31T14:25:37.854Z,2.60
2022-10-31T14:28:21.248Z,2.58
2022-10-31T14:30:59.808Z,2.83
2022-10-31T14:33:31.921Z,2.70
2022-10-31T14:36:08.465Z,2.80
2022-10-31T14:38:51.708Z,3.00
2022-10-31T14:41:21.189Z,3.10
2022-10-31T14:44:09.983Z,3.15
2022-10-31T14:46:51.830Z,2.90
2022-10-31T14:49:47.574Z,2.75
2022-10-31T14:52:17.569Z,3.10
2022-10-31T14:54:49.977Z,3.22
2022-10-31T14:57:28.177Z,2.85
2022-10-31T15:00:05.163Z,2.90
2022-10-31T15:02:40.505Z,3.00
2022-10-31T15:05:11.821Z,3.15
2022-10-31T15:08:00.801Z,3.30
2022-10-31T15:10:37.472Z,2.80
2022-10-31T15:13:24.958Z,3.17
2022-10-31T15:15:56.516Z,3.67
2022-10-31T15:18:29.101Z,2.95
2022-10-31T15:20:57.333Z,2.92
2022-10-31T15:23:27.236Z,2.90
2022-10-31T15:26:05.644Z,3.05
2022-10-31T15:28:32.719Z,2.80
2022-10-31T15:31:04.060Z,2.90
2022-10-31T15:33:38.328Z,2.85
2022-10-31T15:36:07.288Z,2.85
2022-10-31T15:38:34.020Z,2.85
2022-10-31T15:41:04.550Z,3.00
2022-10-31T15:43:36.443Z,2.88
2022-10-31T15:46:03.949Z,2.63
2022-10-31T15:48:32.900Z,2.88
2022-10-31T15:50:59.880Z,3.25
2022-10-31T15:53:47.222Z,2.42
2022-10-31T15:56:21.395Z,3.40
2022-10-31T15:58:51.078Z,2.80
2022-10-31T16:01:26.829Z,3.50
2022-10-31T16:04:13.480Z,2.80
2022-10-31T16:06:40.184Z,2.70
2022-10-31T16:09:22.606Z,2.90
2022-10-31T16:11:49.674Z,2.70
2022-10-31T16:14:31.147Z,2.58
2022-10-31T16:16:59.923Z,2.80
2022-10-31T16:22:11.039Z,3.00
2022-10-31T16:24:48.886Z,2.92
2022-10-31T16:27:26.629Z,2.72
2022-10-31T16:29:53.449Z,2.45
2022-10-31T16:32:37.054Z,2.72
2022-10-31T16:35:10.201Z,2.88
2022-10-31T16:37:42.414Z,3.70
2022-10-31T16:40:17.547Z,3.10
2022-10-31T16:42:45.022Z,2.65
2022-10-31T16:45:44.561Z,3.40
2022-10-31T16:53:20.525Z,2.70
2022-10-31T16:55:58.646Z,3.03
2022-10-31T16:58:28.727Z,3.25
2022-10-31T17:00:55.251Z,3.00
2022-10-31T17:03:22.037Z,2.88
2022-10-31T17:05:48.771Z,3.55
2022-10-31T17:08:16.055Z,2.95
2022-10-31T17:10:44.768Z,2.95
2022-10-31T17:53:19.334Z,2.95
2022-10-31T17:55:45.910Z,3.25
2022-10-31T17:58:13.756Z,3.22
2022-10-31T18:00:45.999Z,2.78
2022-10-31T18:05:51.659Z,2.45
2022-10-31T18:08:18.092Z,3.10
2022-10-31T18:10:44.623Z,2.58
2022-10-31T18:13:11.136Z,2.90
2022-10-31T18:15:40.682Z,3.38
2022-10-31T18:18:07.413Z,3.10
2022-10-31T18:20:33.811Z,2.78
2022-10-31T18:23:00.267Z,3.33
2022-10-31T18:25:26.686Z,3.30
2022-10-31T18:27:53.210Z,2.83
2022-10-31T18:30:19.709Z,2.63
2022-10-31T18:32:50.140Z,3.35
2022-10-31T18:35:16.908Z,2.78
2022-10-31T18:37:43.400Z,2.83
2022-10-31T18:40:10.227Z,3.67
2022-10-31T18:42:38.421Z,3.13
2022-10-31T18:45:11.296Z,3.03
2022-10-31T18:47:43.607Z,2.97
2022-10-31T18:50:10.335Z,3.00
2022-10-31T18:52:37.122Z,2.22
2022-10-31T18:55:04.004Z,2.97
2022-10-31T18:57:30.533Z,2.38
2022-10-31T18:59:56.984Z,2.35
2022-10-31T19:02:23.614Z,2.90
2022-10-31T19:04:50.107Z,2.95
2022-10-31T19:07:16.561Z,3.40
2022-10-31T19:09:43.064Z,2.47
2022-10-31T19:12:09.604Z,2.67
2022-10-31T19:14:36.197Z,2.42
2022-10-31T19:17:02.798Z,2.55
2022-10-31T19:19:29.301Z,2.90
2022-10-31T19:21:56.610Z,3.33
2022-10-31T19:24:23.155Z,2.95
2022-10-31T19:26:49.752Z,3.45
2022-10-31T19:29:16.492Z,3.40
2022-10-31T19:31:43.010Z,2.85
2022-10-31T19:34:10.636Z,2.72
2022-10-31T19:36:37.151Z,2.50
2022-10-31T19:39:03.758Z,3.00
2022-10-31T19:41:30.644Z,3.17
2022-10-31T19:44:00.087Z,3.10
2022-10-31T19:46:51.819Z,3.10
2022-10-31T19:49:13.638Z,2.45
2022-10-31T19:51:40.113Z,2.63
2022-10-31T19:54:06.597Z,3.22
2022-10-31T19:56:33.031Z,3.00
2022-10-31T19:58:59.836Z,3.15
2022-10-31T20:01:26.681Z,2.75
2022-10-31T20:03:53.205Z,2.90
2022-10-31T20:06:29.439Z,3.30
2022-10-31T20:08:56.639Z,3.50
2022-10-31T20:11:24.892Z,3.05
2022-10-31T20:13:51.697Z,2.85
2022-10-31T20:16:18.459Z,3.47
2022-10-31T20:18:46.939Z,3.15
2022-10-31T20:21:17.403Z,2.97
2022-10-31T20:23:44.466Z,2.70
2022-10-31T20:26:13.051Z,2.97
2022-10-31T20:28:43.206Z,2.70
2022-10-31T20:31:16.103Z,2.70
2022-10-31T20:33:42.689Z,4.00
2022-10-31T20:36:09.949Z,2.75
2022-10-31T20:38:40.942Z,2.70
2022-10-31T20:41:10.579Z,2.80
2022-10-31T20:43:37.722Z,2.88
2022-10-31T20:46:07.612Z,2.65
2022-10-31T20:48:34.665Z,2.60
2022-10-31T20:51:04.524Z,2.80
2022-10-31T20:53:31.858Z,2.72
2022-10-31T20:56:07.799Z,2.45
2022-10-31T20:58:36.062Z,2.30
2022-10-31T21:01:03.507Z,2.63
2022-10-31T21:03:30.392Z,2.78
2022-10-31T21:06:01.687Z,2.78
2022-10-31T21:08:29.814Z,2.63
2022-10-31T21:10:58.058Z,3.20
2022-10-31T21:13:25.107Z,3.00
2022-10-31T21:16:02.737Z,3.25
2022-10-31T21:18:29.673Z,2.53
2022-10-31T21:20:56.509Z,2.67
2022-10-31T21:23:23.739Z,2.97
2022-10-31T21:25:50.261Z,3.78
2022-10-31T21:28:17.004Z,3.92
2022-10-31T21:30:45.936Z,3.45
2022-10-31T21:35:39.172Z,3.25
2022-10-31T21:38:05.607Z,4.50
2022-10-31T21:40:32.113Z,4.47
2022-10-31T21:42:59.021Z,5.60
2022-10-31T21:45:25.599Z,4.15
2022-10-31T21:47:52.093Z,3.35
2022-10-31T21:50:18.699Z,4.32
2022-10-31T21:52:45.267Z,4.32
2022-10-31T21:55:11.715Z,3.88
2022-10-31T21:57:38.519Z,3.17
2022-10-31T22:00:08.814Z,3.88
2022-10-31T22:02:35.976Z,3.67
2022-10-31T22:05:02.530Z,3.72
2022-10-31T22:07:29.006Z,3.55
2022-10-31T22:09:55.557Z,3.47
2022-10-31T22:12:22.032Z,3.15
2022-10-31T22:14:48.586Z,3.10
2022-10-31T22:17:15.227Z,3.65
2022-10-31T22:19:41.625Z,3.65
2022-10-31T22:22:08.142Z,3.05
2022-10-31T22:24:34.802Z,3.28
2022-10-31T22:27:01.252Z,3.88
2022-10-31T22:29:28.502Z,3.35
2022-10-31T22:31:58.719Z,3.05
2022-10-31T22:34:27.263Z,2.80
2022-10-31T22:36:54.672Z,2.83
2022-10-31T22:39:21.172Z,2.88
2022-10-31T22:41:47.601Z,3.35
2022-10-31T22:44:14.074Z,3.70
2022-10-31T22:46:40.755Z,3.05
2022-10-31T22:49:11.125Z,2.97
2022-10-31T22:51:39.287Z,3.85
2022-10-31T22:54:08.008Z,3.47
2022-10-31T22:56:34.606Z,3.33
2022-10-31T22:59:02.108Z,3.13
2022-10-31T23:01:31.823Z,3.30
2022-10-31T23:03:58.793Z,2.85
2022-10-31T23:06:27.811Z,2.60
2022-10-31T23:08:54.461Z,2.80
2022-10-31T23:11:22.683Z,2.78
2022-10-31T23:14:09.936Z,2.70
2022-10-31T23:16:42.681Z,2.50
2022-10-31T23:19:11.304Z,2.75
2022-10-31T23:21:56.992Z,2.40
2022-10-31T23:24:38.617Z,2.90
2022-10-31T23:27:25.423Z,2.70
2022-10-31T23:29:54.234Z,2.53
2022-10-31T23:32:27.616Z,2.97
2022-10-31T23:34:56.454Z,2.78
2022-10-31T23:37:25.486Z,2.90
2022-10-31T23:42:19.435Z,2.70
2022-10-31T23:44:46.159Z,2.95
2022-10-31T23:47:13.385Z,2.63
2022-10-31T23:49:40.093Z,2.78
2022-10-31T23:52:07.217Z,3.03
2022-10-31T23:54:34.131Z,2.67
2022-10-31T23:57:01.477Z,2.83
2022-10-31T23:59:29.115Z,2.92
